sensor_id;sensor_type;location;lat;lon;timestamp;pressure;altitude;pressure_sealevel;temperature;humidity
74678;BME280;63207;56.328;43.994;2022-12-11T00:01:15;100274.13;;;20.49;33.65
74678;BME280;63207;56.328;43.994;2022-12-11T00:03:44;100276.06;;;20.47;33.70
74678;BME280;63207;56.328;43.994;2022-12-11T00:06:12;100280.38;;;20.48;33.65
74678;BME280;63207;56.328;43.994;2022-12-11T00:08:39;100276.06;;;20.47;33.61
74678;BME280;63207;56.328;43.994;2022-12-11T00:11:10;100273.31;;;20.48;33.70
74678;BME280;63207;56.328;43.994;2022-12-11T00:13:36;100275.09;;;20.48;33.78
74678;BME280;63207;56.328;43.994;2022-12-11T00:16:02;100273.31;;;20.48;33.78
74678;BME280;63207;56.328;43.994;2022-12-11T00:18:28;100277.75;;;20.48;33.80
74678;BME280;63207;56.328;43.994;2022-12-11T00:20:54;100273.16;;;20.50;33.69
74678;BME280;63207;56.328;43.994;2022-12-11T00:23:20;100267.91;;;20.50;33.59
74678;BME280;63207;56.328;43.994;2022-12-11T00:25:46;100266.22;;;20.49;33.79
74678;BME280;63207;56.328;43.994;2022-12-11T00:28:14;100266.22;;;20.49;33.78
74678;BME280;63207;56.328;43.994;2022-12-11T00:30:42;100260.16;;;20.48;33.69
74678;BME280;63207;56.328;43.994;2022-12-11T00:33:10;100267.22;;;20.48;33.70
74678;BME280;63207;56.328;43.994;2022-12-11T00:35:40;100268.03;;;20.48;33.70
74678;BME280;63207;56.328;43.994;2022-12-11T00:38:06;100260.16;;;20.48;33.69
74678;BME280;63207;56.328;43.994;2022-12-11T00:40:33;100256.72;;;20.48;33.65
74678;BME280;63207;56.328;43.994;2022-12-11T00:42:59;100254.91;;;20.48;33.52
74678;BME280;63207;56.328;43.994;2022-12-11T00:45:25;100255.59;;;20.50;33.69
74678;BME280;63207;56.328;43.994;2022-12-11T00:47:51;100251.16;;;20.51;33.73
74678;BME280;63207;56.328;43.994;2022-12-11T00:50:36;100255.06;;;20.47;33.71
74678;BME280;63207;56.328;43.994;2022-12-11T00:53:04;100249.66;;;20.48;33.67
74678;BME280;63207;56.328;43.994;2022-12-11T00:55:30;100254.91;;;20.48;33.73
74678;BME280;63207;56.328;43.994;2022-12-11T00:57:56;100254.75;;;20.50;33.66
74678;BME280;63207;56.328;43.994;2022-12-11T01:00:23;100250.34;;;20.50;33.59
74678;BME280;63207;56.328;43.994;2022-12-11T01:02:49;100244.41;;;20.48;33.51
74678;BME280;63207;56.328;43.994;2022-12-11T01:05:15;100244.25;;;20.50;33.50
74678;BME280;63207;56.328;43.994;2022-12-11T01:07:41;100247.84;;;20.49;33.71
74678;BME280;63207;56.328;43.994;2022-12-11T01:10:10;100252.28;;;20.48;33.68
74678;BME280;63207;56.328;43.994;2022-12-11T01:12:55;100237.19;;;20.50;33.67
74678;BME280;63207;56.328;43.994;2022-12-11T01:15:26;100252.13;;;20.50;33.78
74678;BME280;63207;56.328;43.994;2022-12-11T01:17:52;100247.69;;;20.50;33.71
74678;BME280;63207;56.328;43.994;2022-12-11T01:20:19;100244.25;;;20.50;33.75
74678;BME280;63207;56.328;43.994;2022-12-11T01:22:45;100248.53;;;20.51;33.83
74678;BME280;63207;56.328;43.994;2022-12-11T01:25:30;100231.25;;;20.48;33.81
74678;BME280;63207;56.328;43.994;2022-12-11T01:27:57;100234.56;;;20.50;33.67
74678;BME280;63207;56.328;43.994;2022-12-11T01:30:24;100232.06;;;20.49;33.74
74678;BME280;63207;56.328;43.994;2022-12-11T01:32:51;100237.19;;;20.50;33.66
74678;BME280;63207;56.328;43.994;2022-12-11T01:35:17;100232.75;;;20.51;33.75
74678;BME280;63207;56.328;43.994;2022-12-11T01:37:44;100238.81;;;20.51;33.72
74678;BME280;63207;56.328;43.994;2022-12-11T01:40:12;100235.38;;;20.51;33.75
74678;BME280;63207;56.328;43.994;2022-12-11T01:42:39;100233.56;;;20.51;33.87
74678;BME280;63207;56.328;43.994;2022-12-11T01:47:47;100239.66;;;20.52;33.63
74678;BME280;63207;56.328;43.994;2022-12-11T01:50:13;100235.38;;;20.51;33.79
74678;BME280;63207;56.328;43.994;2022-12-11T01:52:41;100235.25;;;20.52;33.74
74678;BME280;63207;56.328;43.994;2022-12-11T01:55:08;100226.50;;;20.52;33.62
74678;BME280;63207;56.328;43.994;2022-12-11T01:57:36;100235.25;;;20.52;33.85
74678;BME280;63207;56.328;43.994;2022-12-11T02:00:04;100235.25;;;20.52;33.76
74678;BME280;63207;56.328;43.994;2022-12-11T02:02:39;100230.94;;;20.51;33.60
74678;BME280;63207;56.328;43.994;2022-12-11T02:05:06;100238.81;;;20.51;33.68
74678;BME280;63207;56.328;43.994;2022-12-11T02:07:45;100235.25;;;20.52;33.59
74678;BME280;63207;56.328;43.994;2022-12-11T02:10:13;100232.63;;;20.52;33.62
74678;BME280;63207;56.328;43.994;2022-12-11T02:12:56;100232.44;;;20.54;33.74
74678;BME280;63207;56.328;43.994;2022-12-11T02:18:35;100238.81;;;20.51;33.79
74678;BME280;63207;56.328;43.994;2022-12-11T02:21:14;100238.81;;;20.51;33.81
74678;BME280;63207;56.328;43.994;2022-12-11T02:24:03;100230.94;;;20.51;33.84
74678;BME280;63207;56.328;43.994;2022-12-11T02:26:49;100241.31;;;20.53;33.79
74678;BME280;63207;56.328;43.994;2022-12-11T02:29:41;100234.56;;;20.50;33.73
74678;BME280;63207;56.328;43.994;2022-12-11T02:32:18;100231.75;;;20.52;33.65
74678;BME280;63207;56.328;43.994;2022-12-11T02:37:22;100224.88;;;20.51;33.80
74678;BME280;63207;56.328;43.994;2022-12-11T02:39:51;100223.88;;;20.52;33.67
74678;BME280;63207;56.328;43.994;2022-12-11T02:42:18;100219.47;;;20.52;33.86
74678;BME280;63207;56.328;43.994;2022-12-11T02:44:48;100222.09;;;20.52;33.61
74678;BME280;63207;56.328;43.994;2022-12-11T02:47:16;100229.00;;;20.53;33.82
74678;BME280;63207;56.328;43.994;2022-12-11T02:49:46;100230.81;;;20.53;33.71
74678;BME280;63207;56.328;43.994;2022-12-11T02:52:16;100223.72;;;20.53;33.73
74678;BME280;63207;56.328;43.994;2022-12-11T02:55:05;100231.63;;;20.53;33.76
74678;BME280;63207;56.328;43.994;2022-12-11T02:57:39;100223.72;;;20.53;33.84
74678;BME280;63207;56.328;43.994;2022-12-11T03:00:27;100224.56;;;20.54;33.80
74678;BME280;63207;56.328;43.994;2022-12-11T03:02:53;100226.38;;;20.53;33.76
74678;BME280;63207;56.328;43.994;2022-12-11T03:05:19;100224.72;;;20.52;33.72
74678;BME280;63207;56.328;43.994;2022-12-11T03:07:45;100223.72;;;20.53;33.74
74678;BME280;63207;56.328;43.994;2022-12-11T03:10:13;100221.81;;;20.55;33.84
74678;BME280;63207;56.328;43.994;2022-12-11T03:12:42;100224.56;;;20.54;33.78
74678;BME280;63207;56.328;43.994;2022-12-11T03:15:13;100214.84;;;20.54;33.90
74678;BME280;63207;56.328;43.994;2022-12-11T03:17:59;100227.88;;;20.56;33.75
74678;BME280;63207;56.328;43.994;2022-12-11T03:23:27;100221.81;;;20.55;33.81
74678;BME280;63207;56.328;43.994;2022-12-11T03:25:58;100223.63;;;20.55;33.66
74678;BME280;63207;56.328;43.994;2022-12-11T03:28:46;100218.38;;;20.55;33.83
74678;BME280;63207;56.328;43.994;2022-12-11T03:31:28;100218.38;;;20.55;33.79
74678;BME280;63207;56.328;43.994;2022-12-11T03:34:00;100211.41;;;20.54;33.74
74678;BME280;63207;56.328;43.994;2022-12-11T03:36:34;100210.47;;;20.55;33.77
74678;BME280;63207;56.328;43.994;2022-12-11T03:39:06;100223.44;;;20.56;33.67
74678;BME280;63207;56.328;43.994;2022-12-11T03:41:36;100210.47;;;20.55;33.79
74678;BME280;63207;56.328;43.994;2022-12-11T03:44:05;100221.00;;;20.55;33.74
74678;BME280;63207;56.328;43.994;2022-12-11T03:46:35;100224.44;;;20.55;33.90
74678;BME280;63207;56.328;43.994;2022-12-11T03:49:19;100219.19;;;20.55;33.73
74678;BME280;63207;56.328;43.994;2022-12-11T03:51:48;100208.50;;;20.57;33.71
74678;BME280;63207;56.328;43.994;2022-12-11T03:54:16;100215.56;;;20.56;33.73
74678;BME280;63207;56.328;43.994;2022-12-11T03:56:44;100213.94;;;20.55;33.82
74678;BME280;63207;56.328;43.994;2022-12-11T03:59:11;100216.38;;;20.57;33.81
74678;BME280;63207;56.328;43.994;2022-12-11T04:01:37;100211.13;;;20.57;33.72
74678;BME280;63207;56.328;43.994;2022-12-11T04:04:03;100212.78;;;20.58;33.88
74678;BME280;63207;56.328;43.994;2022-12-11T04:06:29;100210.31;;;20.56;33.75
74678;BME280;63207;56.328;43.994;2022-12-11T04:08:55;100211.13;;;20.57;33.78
74678;BME280;63207;56.328;43.994;2022-12-11T04:11:21;100212.94;;;20.56;33.90
74678;BME280;63207;56.328;43.994;2022-12-11T04:14:01;100210.31;;;20.56;33.87
74678;BME280;63207;56.328;43.994;2022-12-11T04:16:45;100215.56;;;20.56;33.79
74678;BME280;63207;56.328;43.994;2022-12-11T04:19:11;100225.13;;;20.57;33.64
74678;BME280;63207;56.328;43.994;2022-12-11T04:21:55;100220.13;;;20.54;33.78
74678;BME280;63207;56.328;43.994;2022-12-11T04:24:40;100220.81;;;20.56;33.74
74678;BME280;63207;56.328;43.994;2022-12-11T04:27:06;100217.38;;;20.56;33.79
74678;BME280;63207;56.328;43.994;2022-12-11T04:29:31;100225.25;;;20.56;33.77
74678;BME280;63207;56.328;43.994;2022-12-11T04:31:57;100229.53;;;20.57;33.91
74678;BME280;63207;56.328;43.994;2022-12-11T04:34:23;100233.97;;;20.56;33.76
74678;BME280;63207;56.328;43.994;2022-12-11T04:36:49;100233.81;;;20.58;33.76
74678;BME280;63207;56.328;43.994;2022-12-11T04:39:15;100224.25;;;20.57;33.83
74678;BME280;63207;56.328;43.994;2022-12-11T04:41:41;100222.47;;;20.57;33.83
74678;BME280;63207;56.328;43.994;2022-12-11T04:44:07;100218.88;;;20.58;33.87
74678;BME280;63207;56.328;43.994;2022-12-11T04:46:33;100234.63;;;20.58;33.89
74678;BME280;63207;56.328;43.994;2022-12-11T04:48:59;100223.13;;;20.59;33.88
74678;BME280;63207;56.328;43.994;2022-12-11T04:51:43;100219.00;;;20.57;33.81
74678;BME280;63207;56.328;43.994;2022-12-11T04:54:29;100236.44;;;20.58;33.71
74678;BME280;63207;56.328;43.994;2022-12-11T04:56:54;100226.75;;;20.58;33.70
74678;BME280;63207;56.328;43.994;2022-12-11T04:59:20;100238.06;;;20.59;33.83
74678;BME280;63207;56.328;43.994;2022-12-11T05:01:46;100234.63;;;20.58;33.85
74678;BME280;63207;56.328;43.994;2022-12-11T05:04:13;100234.63;;;20.58;33.71
74678;BME280;63207;56.328;43.994;2022-12-11T05:06:39;100239.06;;;20.58;33.82
74678;BME280;63207;56.328;43.994;2022-12-11T05:09:04;100242.38;;;20.60;33.69
74678;BME280;63207;56.328;43.994;2022-12-11T05:11:30;100245.16;;;20.58;33.84
74678;BME280;63207;56.328;43.994;2022-12-11T05:13:56;100252.03;;;20.59;33.81
74678;BME280;63207;56.328;43.994;2022-12-11T05:16:22;100242.50;;;20.58;33.77
74678;BME280;63207;56.328;43.994;2022-12-11T05:18:48;100242.50;;;20.58;33.82
74678;BME280;63207;56.328;43.994;2022-12-11T05:21:14;100247.63;;;20.60;33.78
74678;BME280;63207;56.328;43.994;2022-12-11T05:23:40;100251.06;;;20.60;33.83
74678;BME280;63207;56.328;43.994;2022-12-11T05:26:25;100266.97;;;20.59;33.80
74678;BME280;63207;56.328;43.994;2022-12-11T05:28:52;100263.41;;;20.60;33.74
74678;BME280;63207;56.328;43.994;2022-12-11T05:31:21;100258.13;;;20.60;33.80
74678;BME280;63207;56.328;43.994;2022-12-11T05:33:48;100264.22;;;20.60;33.81
74678;BME280;63207;56.328;43.994;2022-12-11T05:36:17;100272.91;;;20.61;33.78
74678;BME280;63207;56.328;43.994;2022-12-11T05:38:44;100262.53;;;20.59;33.89
74678;BME280;63207;56.328;43.994;2022-12-11T05:41:13;100272.25;;;20.59;33.91
74678;BME280;63207;56.328;43.994;2022-12-11T05:43:58;100273.06;;;20.59;33.82
74678;BME280;63207;56.328;43.994;2022-12-11T05:46:26;100266.16;;;20.58;33.75
74678;BME280;63207;56.328;43.994;2022-12-11T05:48:55;100265.19;;;20.59;33.97
74678;BME280;63207;56.328;43.994;2022-12-11T05:51:21;100268.66;;;20.60;33.91
74678;BME280;63207;56.328;43.994;2022-12-11T05:53:49;100277.34;;;20.60;33.74
74678;BME280;63207;56.328;43.994;2022-12-11T05:56:20;100271.28;;;20.60;33.92
74678;BME280;63207;56.328;43.994;2022-12-11T05:58:47;100283.44;;;20.61;34.02
74678;BME280;63207;56.328;43.994;2022-12-11T06:01:16;100283.44;;;20.61;33.86
74678;BME280;63207;56.328;43.994;2022-12-11T06:03:43;100293.13;;;20.60;33.79
74678;BME280;63207;56.328;43.994;2022-12-11T06:06:09;100301.00;;;20.60;33.92
74678;BME280;63207;56.328;43.994;2022-12-11T06:08:35;100308.72;;;20.62;34.05
74678;BME280;63207;56.328;43.994;2022-12-11T06:11:02;100300.00;;;20.61;33.89
74678;BME280;63207;56.328;43.994;2022-12-11T06:13:28;100297.38;;;20.61;33.93
74678;BME280;63207;56.328;43.994;2022-12-11T06:15:54;100300.00;;;20.61;33.78
74678;BME280;63207;56.328;43.994;2022-12-11T06:18:24;100307.91;;;20.61;33.79
74678;BME280;63207;56.328;43.994;2022-12-11T06:20:49;100305.28;;;20.61;33.89
74678;BME280;63207;56.328;43.994;2022-12-11T06:23:15;100312.19;;;20.62;33.97
74678;BME280;63207;56.328;43.994;2022-12-11T06:25:41;100313.97;;;20.62;33.91
74678;BME280;63207;56.328;43.994;2022-12-11T06:28:07;100313.16;;;20.61;33.90
74678;BME280;63207;56.328;43.994;2022-12-11T06:30:33;100310.69;;;20.60;33.99
74678;BME280;63207;56.328;43.994;2022-12-11T06:32:59;100320.06;;;20.62;33.82
74678;BME280;63207;56.328;43.994;2022-12-11T06:35:25;100327.97;;;20.62;33.95
74678;BME280;63207;56.328;43.994;2022-12-11T06:37:50;100327.09;;;20.62;33.93
74678;BME280;63207;56.328;43.994;2022-12-11T06:40:16;100333.34;;;20.61;33.81
74678;BME280;63207;56.328;43.994;2022-12-11T06:42:42;100337.47;;;20.63;33.91
74678;BME280;63207;56.328;43.994;2022-12-11T06:45:09;100331.41;;;20.63;33.92
74678;BME280;63207;56.328;43.994;2022-12-11T06:47:35;100341.91;;;20.63;33.90
74678;BME280;63207;56.328;43.994;2022-12-11T06:50:00;100337.47;;;20.63;34.03
74678;BME280;63207;56.328;43.994;2022-12-11T06:52:28;100340.09;;;20.63;33.83
74678;BME280;63207;56.328;43.994;2022-12-11T06:54:55;100335.84;;;20.62;33.96
74678;BME280;63207;56.328;43.994;2022-12-11T06:57:21;100337.78;;;20.60;33.88
74678;BME280;63207;56.328;43.994;2022-12-11T06:59:47;100348.00;;;20.63;33.90
74678;BME280;63207;56.328;43.994;2022-12-11T07:02:17;100345.38;;;20.63;33.90
74678;BME280;63207;56.328;43.994;2022-12-11T07:05:02;100356.88;;;20.62;33.81
74678;BME280;63207;56.328;43.994;2022-12-11T07:07:28;100348.00;;;20.63;33.92
74678;BME280;63207;56.328;43.994;2022-12-11T07:09:54;100359.31;;;20.64;33.94
74678;BME280;63207;56.328;43.994;2022-12-11T07:12:20;100356.88;;;20.62;33.97
74678;BME280;63207;56.328;43.994;2022-12-11T07:14:46;100356.69;;;20.64;33.97
74678;BME280;63207;56.328;43.994;2022-12-11T07:17:12;100353.25;;;20.63;33.88
74678;BME280;63207;56.328;43.994;2022-12-11T07:19:38;100355.75;;;20.65;33.80
74678;BME280;63207;56.328;43.994;2022-12-11T07:22:05;100357.56;;;20.64;34.05
74678;BME280;63207;56.328;43.994;2022-12-11T07:24:31;100350.63;;;20.63;33.86
74678;BME280;63207;56.328;43.994;2022-12-11T07:26:56;100355.75;;;20.65;33.87
74678;BME280;63207;56.328;43.994;2022-12-11T07:29:42;100352.28;;;20.64;33.94
74678;BME280;63207;56.328;43.994;2022-12-11T07:32:09;100355.06;;;20.63;33.76
74678;BME280;63207;56.328;43.994;2022-12-11T07:34:35;100369.69;;;20.65;33.81
74678;BME280;63207;56.328;43.994;2022-12-11T07:37:01;100364.44;;;20.65;33.94
74678;BME280;63207;56.328;43.994;2022-12-11T07:39:27;100365.44;;;20.64;33.83
74678;BME280;63207;56.328;43.994;2022-12-11T07:41:52;100372.31;;;20.65;33.89
74678;BME280;63207;56.328;43.994;2022-12-11T07:44:20;100370.69;;;20.64;33.90
74678;BME280;63207;56.328;43.994;2022-12-11T07:46:45;100365.25;;;20.66;33.87
74678;BME280;63207;56.328;43.994;2022-12-11T07:49:11;100373.16;;;20.66;33.97
74678;BME280;63207;56.328;43.994;2022-12-11T07:51:37;100362.63;;;20.66;33.86
74678;BME280;63207;56.328;43.994;2022-12-11T07:54:10;100364.44;;;20.65;33.88
74678;BME280;63207;56.328;43.994;2022-12-11T07:56:37;100360.19;;;20.64;33.96
74678;BME280;63207;56.328;43.994;2022-12-11T07:59:04;100354.75;;;20.66;33.94
74678;BME280;63207;56.328;43.994;2022-12-11T08:01:32;100364.44;;;20.65;33.99
74678;BME280;63207;56.328;43.994;2022-12-11T08:04:02;100362.81;;;20.64;33.78
74678;BME280;63207;56.328;43.994;2022-12-11T08:06:30;100369.69;;;20.65;34.01
74678;BME280;63207;56.328;43.994;2022-12-11T08:08:58;100363.44;;;20.67;33.92
74678;BME280;63207;56.328;43.994;2022-12-11T08:11:24;100377.59;;;20.65;34.03
74678;BME280;63207;56.328;43.994;2022-12-11T08:13:51;100377.59;;;20.65;33.90
74678;BME280;63207;56.328;43.994;2022-12-11T08:16:18;100378.25;;;20.68;33.67
74678;BME280;63207;56.328;43.994;2022-12-11T08:18:45;100385.47;;;20.65;33.83
74678;BME280;63207;56.328;43.994;2022-12-11T08:23:41;100395.84;;;20.67;33.91
74678;BME280;63207;56.328;43.994;2022-12-11T08:26:10;100392.22;;;20.68;34.01
74678;BME280;63207;56.328;43.994;2022-12-11T08:28:37;100388.91;;;20.66;33.98
74678;BME280;63207;56.328;43.994;2022-12-11T08:31:07;100400.09;;;20.68;33.91
74678;BME280;63207;56.328;43.994;2022-12-11T08:33:35;100403.56;;;20.69;33.80
74678;BME280;63207;56.328;43.994;2022-12-11T08:36:05;100398.28;;;20.69;33.86
74678;BME280;63207;56.328;43.994;2022-12-11T08:38:53;100390.72;;;20.65;33.84
74678;BME280;63207;56.328;43.994;2022-12-11T08:41:20;100400.09;;;20.68;33.77
74678;BME280;63207;56.328;43.994;2022-12-11T08:43:48;100409.81;;;20.68;33.89
74678;BME280;63207;56.328;43.994;2022-12-11T08:46:14;100402.88;;;20.67;33.98
74678;BME280;63207;56.328;43.994;2022-12-11T08:48:41;100401.09;;;20.67;33.76
74678;BME280;63207;56.328;43.994;2022-12-11T08:51:11;100398.47;;;20.67;33.95
74678;BME280;63207;56.328;43.994;2022-12-11T08:53:37;100396.66;;;20.68;34.02
74678;BME280;63207;56.328;43.994;2022-12-11T08:56:06;100394.03;;;20.68;33.83
74678;BME280;63207;56.328;43.994;2022-12-11T08:58:32;100407.16;;;20.68;33.84
74678;BME280;63207;56.328;43.994;2022-12-11T09:00:58;100410.63;;;20.68;34.02
74678;BME280;63207;56.328;43.994;2022-12-11T09:03:24;100410.47;;;20.70;33.91
74678;BME280;63207;56.328;43.994;2022-12-11T09:05:50;100410.63;;;20.68;33.95
74678;BME280;63207;56.328;43.994;2022-12-11T09:08:16;100414.06;;;20.69;34.00
74678;BME280;63207;56.328;43.994;2022-12-11T09:10:43;100414.88;;;20.69;33.94
74678;BME280;63207;56.328;43.994;2022-12-11T09:13:08;100414.06;;;20.69;34.06
74678;BME280;63207;56.328;43.994;2022-12-11T09:15:34;100415.88;;;20.68;34.05
74678;BME280;63207;56.328;43.994;2022-12-11T09:18:00;100422.78;;;20.69;34.05
74678;BME280;63207;56.328;43.994;2022-12-11T09:20:26;100421.81;;;20.70;33.94
74678;BME280;63207;56.328;43.994;2022-12-11T09:22:52;100420.31;;;20.68;33.91
74678;BME280;63207;56.328;43.994;2022-12-11T09:25:18;100422.63;;;20.71;33.89
74678;BME280;63207;56.328;43.994;2022-12-11T09:27:44;100426.25;;;20.70;33.99
74678;BME280;63207;56.328;43.994;2022-12-11T09:30:10;100439.41;;;20.70;34.03
74678;BME280;63207;56.328;43.994;2022-12-11T09:32:36;100433.16;;;20.71;33.89
74678;BME280;63207;56.328;43.994;2022-12-11T09:35:02;100438.41;;;20.71;33.95
74678;BME280;63207;56.328;43.994;2022-12-11T09:37:29;100448.78;;;20.72;33.90
74678;BME280;63207;56.328;43.994;2022-12-11T09:39:54;100447.94;;;20.72;33.84
74678;BME280;63207;56.328;43.994;2022-12-11T09:42:29;100448.78;;;20.72;33.90
74678;BME280;63207;56.328;43.994;2022-12-11T09:45:02;100454.16;;;20.71;33.99
74678;BME280;63207;56.328;43.994;2022-12-11T09:47:40;100451.41;;;20.72;33.92
74678;BME280;63207;56.328;43.994;2022-12-11T09:52:43;100448.78;;;20.72;34.06
74678;BME280;63207;56.328;43.994;2022-12-11T09:55:15;100449.72;;;20.71;33.93
74678;BME280;63207;56.328;43.994;2022-12-11T10:07:07;100468.13;;;20.71;34.01
74678;BME280;63207;56.328;43.994;2022-12-11T10:09:46;100477.84;;;20.71;33.98
74678;BME280;63207;56.328;43.994;2022-12-11T10:12:36;100482.25;;;20.70;34.01
74678;BME280;63207;56.328;43.994;2022-12-11T10:17:54;100496.91;;;20.73;34.00
74678;BME280;63207;56.328;43.994;2022-12-11T10:20:40;100497.88;;;20.72;34.09
74678;BME280;63207;56.328;43.994;2022-12-11T10:23:35;100489.97;;;20.72;33.93
74678;BME280;63207;56.328;43.994;2022-12-11T10:26:09;100489.03;;;20.73;33.98
74678;BME280;63207;56.328;43.994;2022-12-11T10:28:36;100499.69;;;20.71;34.01
74678;BME280;63207;56.328;43.994;2022-12-11T10:31:15;100502.16;;;20.73;34.04
74678;BME280;63207;56.328;43.994;2022-12-11T10:36:18;100499.53;;;20.73;33.99
74678;BME280;63207;56.328;43.994;2022-12-11T10:38:46;100511.88;;;20.72;34.01
74678;BME280;63207;56.328;43.994;2022-12-11T10:41:41;100506.44;;;20.74;33.89
74678;BME280;63207;56.328;43.994;2022-12-11T10:44:33;100507.25;;;20.74;33.85
74678;BME280;63207;56.328;43.994;2022-12-11T10:47:13;100510.06;;;20.73;34.06
74678;BME280;63207;56.328;43.994;2022-12-11T10:49:53;100519.56;;;20.74;33.98
74678;BME280;63207;56.328;43.994;2022-12-11T10:52:23;100524.69;;;20.75;34.14
74678;BME280;63207;56.328;43.994;2022-12-11T10:54:57;100526.34;;;20.76;34.02
74678;BME280;63207;56.328;43.994;2022-12-11T10:57:29;100524.69;;;20.75;33.91
74678;BME280;63207;56.328;43.994;2022-12-11T10:59:56;100536.84;;;20.76;34.09
74678;BME280;63207;56.328;43.994;2022-12-11T11:02:24;100530.78;;;20.76;34.10
74678;BME280;63207;56.328;43.994;2022-12-11T11:04:52;100531.59;;;20.76;34.08
74678;BME280;63207;56.328;43.994;2022-12-11T11:07:22;100541.16;;;20.77;34.12
74678;BME280;63207;56.328;43.994;2022-12-11T11:09:49;100548.06;;;20.78;34.06
74678;BME280;63207;56.328;43.994;2022-12-11T11:12:24;100548.19;;;20.77;34.09
74678;BME280;63207;56.328;43.994;2022-12-11T11:15:02;100546.41;;;20.77;34.08
74678;BME280;63207;56.328;43.994;2022-12-11T11:17:49;100553.31;;;20.78;34.15
74678;BME280;63207;56.328;43.994;2022-12-11T11:20:24;100548.19;;;20.77;34.13
74678;BME280;63207;56.328;43.994;2022-12-11T11:23:11;100549.84;;;20.78;34.12
74678;BME280;63207;56.328;43.994;2022-12-11T11:25:38;100556.75;;;20.79;34.16
74678;BME280;63207;56.328;43.994;2022-12-11T11:28:36;100552.50;;;20.78;34.05
74678;BME280;63207;56.328;43.994;2022-12-11T11:31:32;100569.91;;;20.79;34.07
74678;BME280;63207;56.328;43.994;2022-12-11T11:34:01;100576.16;;;20.78;34.04
74678;BME280;63207;56.328;43.994;2022-12-11T11:36:37;100564.66;;;20.79;34.07
74678;BME280;63207;56.328;43.994;2022-12-11T11:47:18;100580.41;;;20.79;33.99
74678;BME280;63207;56.328;43.994;2022-12-11T11:49:53;100575.97;;;20.79;34.05
74678;BME280;63207;56.328;43.994;2022-12-11T11:52:33;100580.28;;;20.80;34.19
74678;BME280;63207;56.328;43.994;2022-12-11T11:55:15;100573.34;;;20.79;34.16
74678;BME280;63207;56.328;43.994;2022-12-11T12:00:24;100588.16;;;20.80;34.14
74678;BME280;63207;56.328;43.994;2022-12-11T12:03:00;100589.97;;;20.80;34.19
74678;BME280;63207;56.328;43.994;2022-12-11T12:05:54;100589.13;;;20.79;34.00
74678;BME280;63207;56.328;43.994;2022-12-11T12:08:48;100593.56;;;20.79;34.11
74678;BME280;63207;56.328;43.994;2022-12-11T12:11:28;100592.59;;;20.80;34.11
74678;BME280;63207;56.328;43.994;2022-12-11T12:14:16;100595.22;;;20.80;34.11
74678;BME280;63207;56.328;43.994;2022-12-11T12:19:48;100603.94;;;20.80;34.20
74678;BME280;63207;56.328;43.994;2022-12-11T12:25:17;100609.06;;;20.82;34.24
74678;BME280;63207;56.328;43.994;2022-12-11T12:30:19;100614.31;;;20.82;34.22
74678;BME280;63207;56.328;43.994;2022-12-11T12:33:01;100615.13;;;20.82;34.24
74678;BME280;63207;56.328;43.994;2022-12-11T12:35:36;100618.59;;;20.83;34.25
74678;BME280;63207;56.328;43.994;2022-12-11T12:38:28;100623.84;;;20.83;34.29
74678;BME280;63207;56.328;43.994;2022-12-11T12:48:47;100632.72;;;20.82;34.15
74678;BME280;63207;56.328;43.994;2022-12-11T12:51:15;100643.06;;;20.83;34.27
74678;BME280;63207;56.328;43.994;2022-12-11T12:53:48;100643.06;;;20.83;34.27
74678;BME280;63207;56.328;43.994;2022-12-11T12:56:18;100652.78;;;20.83;34.21
74678;BME280;63207;56.328;43.994;2022-12-11T12:58:45;100648.88;;;20.87;34.16
74678;BME280;63207;56.328;43.994;2022-12-11T13:03:58;100647.41;;;21.02;34.13
74678;BME280;63207;56.328;43.994;2022-12-11T13:06:41;100648.47;;;21.10;34.03
74678;BME280;63207;56.328;43.994;2022-12-11T13:09:24;100647.84;;;21.16;33.91
74678;BME280;63207;56.328;43.994;2022-12-11T13:12:14;100650.03;;;21.20;33.96
74678;BME280;63207;56.328;43.994;2022-12-11T13:14:40;100653.03;;;21.25;33.83
74678;BME280;63207;56.328;43.994;2022-12-11T13:17:56;100651.59;;;21.31;33.86
74678;BME280;63207;56.328;43.994;2022-12-11T13:20:18;100659.34;;;21.33;33.92
74678;BME280;63207;56.328;43.994;2022-12-11T13:25:46;100662.91;;;21.41;33.65
74678;BME280;63207;56.328;43.994;2022-12-11T13:28:28;100653.06;;;21.43;33.77
74678;BME280;63207;56.328;43.994;2022-12-11T13:33:24;100656.06;;;21.48;33.74
74678;BME280;63207;56.328;43.994;2022-12-11T13:38:38;100661.19;;;21.50;33.67
74678;BME280;63207;56.328;43.994;2022-12-11T13:41:10;100648.84;;;21.50;33.65
74678;BME280;63207;56.328;43.994;2022-12-11T13:43:37;100644.56;;;21.49;33.71
74678;BME280;63207;56.328;43.994;2022-12-11T13:46:11;100640.44;;;21.47;33.75
74678;BME280;63207;56.328;43.994;2022-12-11T13:48:54;100636.31;;;21.44;33.69
74678;BME280;63207;56.328;43.994;2022-12-11T13:51:27;100640.06;;;21.42;33.84
74678;BME280;63207;56.328;43.994;2022-12-11T13:54:13;100640.22;;;21.40;33.88
74678;BME280;63207;56.328;43.994;2022-12-11T13:56:51;100636.88;;;21.38;33.94
74678;BME280;63207;56.328;43.994;2022-12-11T13:59:27;100637.84;;;21.37;33.94
74678;BME280;63207;56.328;43.994;2022-12-11T14:01:59;100633.88;;;21.33;33.98
74678;BME280;63207;56.328;43.994;2022-12-11T14:04:26;100650.63;;;21.32;33.95
74678;BME280;63207;56.328;43.994;2022-12-11T14:06:54;100646.34;;;21.31;33.95
74678;BME280;63207;56.328;43.994;2022-12-11T14:09:23;100648.16;;;21.30;34.05